sensor_id;sensor_type;location;lat;lon;timestamp;pressure;altitude;pressure_sealevel;temperature;humidity
28306;BME280;7516;43.570;1.448;2023-08-08T00:02:03;99870.81;;;19.66;44.65
28306;BME280;7516;43.570;1.448;2023-08-08T00:04:31;99870.69;;;19.61;44.71
28306;BME280;7516;43.570;1.448;2023-08-08T00:06:59;99867.56;;;19.52;44.85
28306;BME280;7516;43.570;1.448;2023-08-08T00:09:26;99870.25;;;19.45;44.87
28306;BME280;7516;43.570;1.448;2023-08-08T00:11:54;99865.84;;;19.39;45.01
28306;BME280;7516;43.570;1.448;2023-08-08T00:14:23;99862.25;;;19.34;45.07
28306;BME280;7516;43.570;1.448;2023-08-08T00:16:52;99864.16;;;19.27;45.34
28306;BME280;7516;43.570;1.448;2023-08-08T00:19:19;99858.72;;;19.22;45.39
28306;BME280;7516;43.570;1.448;2023-08-08T00:21:47;99856.75;;;19.17;45.23
28306;BME280;7516;43.570;1.448;2023-08-08T00:24:14;99864.56;;;19.12;45.58
28306;BME280;7516;43.570;1.448;2023-08-08T00:26:41;99860.97;;;19.06;45.41
28306;BME280;7516;43.570;1.448;2023-08-08T00:29:09;99861.63;;;19.02;45.62
28306;BME280;7516;43.570;1.448;2023-08-08T00:31:36;99863.34;;;18.96;45.74
28306;BME280;7516;43.570;1.448;2023-08-08T00:34:05;99855.00;;;18.93;45.97
28306;BME280;7516;43.570;1.448;2023-08-08T00:36:32;99850.16;;;18.90;45.89
28306;BME280;7516;43.570;1.448;2023-08-08T00:39:00;99857.72;;;18.86;45.82
28306;BME280;7516;43.570;1.448;2023-08-08T00:41:27;99860.00;;;18.83;46.10
28306;BME280;7516;43.570;1.448;2023-08-08T00:43:55;99849.84;;;18.79;46.15
28306;BME280;7516;43.570;1.448;2023-08-08T00:46:23;99849.47;;;18.76;46.42
28306;BME280;7516;43.570;1.448;2023-08-08T00:48:51;99854.44;;;18.72;46.55
28306;BME280;7516;43.570;1.448;2023-08-08T00:51:20;99850.59;;;18.68;46.76
28306;BME280;7516;43.570;1.448;2023-08-08T00:53:49;99839.81;;;18.63;47.14
28306;BME280;7516;43.570;1.448;2023-08-08T00:56:17;99840.25;;;18.60;47.38
28306;BME280;7516;43.570;1.448;2023-08-08T00:58:45;99845.19;;;18.57;47.64
28306;BME280;7516;43.570;1.448;2023-08-08T01:01:12;99840.53;;;18.52;47.82
28306;BME280;7516;43.570;1.448;2023-08-08T01:03:40;99835.84;;;18.48;47.88
28306;BME280;7516;43.570;1.448;2023-08-08T01:06:13;99834.69;;;18.43;48.27
28306;BME280;7516;43.570;1.448;2023-08-08T01:08:49;99840.44;;;18.40;48.70
28306;BME280;7516;43.570;1.448;2023-08-08T01:11:18;99833.34;;;18.34;48.75
28306;BME280;7516;43.570;1.448;2023-08-08T01:13:46;99841.53;;;18.33;49.47
28306;BME280;7516;43.570;1.448;2023-08-08T01:16:14;99837.72;;;18.29;49.26
28306;BME280;7516;43.570;1.448;2023-08-08T01:18:43;99844.25;;;18.26;49.58
28306;BME280;7516;43.570;1.448;2023-08-08T01:21:15;99836.94;;;18.22;49.86
28306;BME280;7516;43.570;1.448;2023-08-08T01:23:50;99840.03;;;18.19;49.89
28306;BME280;7516;43.570;1.448;2023-08-08T01:26:21;99840.69;;;18.14;50.43
28306;BME280;7516;43.570;1.448;2023-08-08T01:28:52;99839.50;;;18.10;50.63
28306;BME280;7516;43.570;1.448;2023-08-08T01:31:20;99838.91;;;18.08;50.74
28306;BME280;7516;43.570;1.448;2023-08-08T01:33:48;99839.53;;;18.03;51.17
28306;BME280;7516;43.570;1.448;2023-08-08T01:36:27;99843.66;;;17.99;51.66
28306;BME280;7516;43.570;1.448;2023-08-08T01:38:58;99839.81;;;17.95;51.71
28306;BME280;7516;43.570;1.448;2023-08-08T01:41:32;99835.19;;;17.91;51.68
28306;BME280;7516;43.570;1.448;2023-08-08T01:44:00;99835.81;;;17.86;51.97
28306;BME280;7516;43.570;1.448;2023-08-08T01:46:29;99832.78;;;17.83;52.09
28306;BME280;7516;43.570;1.448;2023-08-08T01:48:58;99839.75;;;17.77;52.53
28306;BME280;7516;43.570;1.448;2023-08-08T01:51:26;99833.28;;;17.73;52.36
28306;BME280;7516;43.570;1.448;2023-08-08T01:53:53;99831.25;;;17.68;52.88
28306;BME280;7516;43.570;1.448;2023-08-08T01:56:21;99830.88;;;17.65;52.99
28306;BME280;7516;43.570;1.448;2023-08-08T01:58:50;99847.22;;;17.62;53.01
28306;BME280;7516;43.570;1.448;2023-08-08T02:01:17;99842.31;;;17.59;53.37
28306;BME280;7516;43.570;1.448;2023-08-08T02:03:45;99842.75;;;17.56;53.79
28306;BME280;7516;43.570;1.448;2023-08-08T02:06:12;99839.69;;;17.52;54.37
28306;BME280;7516;43.570;1.448;2023-08-08T02:08:40;99844.41;;;17.50;54.16
28306;BME280;7516;43.570;1.448;2023-08-08T02:11:07;99851.75;;;17.48;54.75
28306;BME280;7516;43.570;1.448;2023-08-08T02:13:34;99853.81;;;17.46;55.02
28306;BME280;7516;43.570;1.448;2023-08-08T02:16:03;99846.47;;;17.42;55.61
28306;BME280;7516;43.570;1.448;2023-08-08T02:18:31;99840.00;;;17.38;55.70
28306;BME280;7516;43.570;1.448;2023-08-08T02:20:58;99852.63;;;17.36;55.82
28306;BME280;7516;43.570;1.448;2023-08-08T02:23:26;99846.72;;;17.34;56.35
28306;BME280;7516;43.570;1.448;2023-08-08T02:25:53;99851.47;;;17.32;56.57
28306;BME280;7516;43.570;1.448;2023-08-08T02:28:21;99849.03;;;17.30;56.48
28306;BME280;7516;43.570;1.448;2023-08-08T02:30:48;99844.94;;;17.27;56.81
28306;BME280;7516;43.570;1.448;2023-08-08T02:33:17;99846.16;;;17.25;57.17
28306;BME280;7516;43.570;1.448;2023-08-08T02:35:44;99842.53;;;17.19;57.75
28306;BME280;7516;43.570;1.448;2023-08-08T02:38:12;99840.31;;;17.16;57.78
28306;BME280;7516;43.570;1.448;2023-08-08T02:40:39;99840.75;;;17.13;58.31
28306;BME280;7516;43.570;1.448;2023-08-08T02:43:07;99844.63;;;17.11;58.07
28306;BME280;7516;43.570;1.448;2023-08-08T02:45:35;99846.66;;;17.09;58.40
28306;BME280;7516;43.570;1.448;2023-08-08T02:48:03;99848.94;;;17.05;58.51
28306;BME280;7516;43.570;1.448;2023-08-08T02:50:32;99858.31;;;17.01;58.81
28306;BME280;7516;43.570;1.448;2023-08-08T02:52:59;99847.56;;;16.96;59.00
28306;BME280;7516;43.570;1.448;2023-08-08T02:55:27;99850.81;;;16.91;59.78
28306;BME280;7516;43.570;1.448;2023-08-08T02:57:54;99853.91;;;16.88;60.03
28306;BME280;7516;43.570;1.448;2023-08-08T03:00:22;99860.22;;;16.87;60.17
28306;BME280;7516;43.570;1.448;2023-08-08T03:02:49;99866.72;;;16.85;59.88
28306;BME280;7516;43.570;1.448;2023-08-08T03:05:17;99859.00;;;16.83;60.46
28306;BME280;7516;43.570;1.448;2023-08-08T03:07:46;99865.50;;;16.81;60.68
28306;BME280;7516;43.570;1.448;2023-08-08T03:10:13;99856.97;;;16.79;60.76
28306;BME280;7516;43.570;1.448;2023-08-08T03:12:41;99865.13;;;16.77;60.88
28306;BME280;7516;43.570;1.448;2023-08-08T03:15:09;99865.31;;;16.76;61.07
28306;BME280;7516;43.570;1.448;2023-08-08T03:17:37;99857.78;;;16.73;60.92
28306;BME280;7516;43.570;1.448;2023-08-08T03:20:05;99865.16;;;16.71;61.60
28306;BME280;7516;43.570;1.448;2023-08-08T03:22:33;99860.25;;;16.68;61.65
28306;BME280;7516;43.570;1.448;2023-08-08T03:25:02;99855.38;;;16.65;61.53
28306;BME280;7516;43.570;1.448;2023-08-08T03:27:30;99851.34;;;16.62;61.88
28306;BME280;7516;43.570;1.448;2023-08-08T03:29:57;99859.44;;;16.61;62.24
28306;BME280;7516;43.570;1.448;2023-08-08T03:32:25;99856.59;;;16.55;62.45
28306;BME280;7516;43.570;1.448;2023-08-08T03:34:52;99855.78;;;16.55;62.13
28306;BME280;7516;43.570;1.448;2023-08-08T03:37:20;99862.31;;;16.52;62.20
28306;BME280;7516;43.570;1.448;2023-08-08T03:39:47;99856.59;;;16.49;62.32
28306;BME280;7516;43.570;1.448;2023-08-08T03:42:16;99864.94;;;16.46;62.73
28306;BME280;7516;43.570;1.448;2023-08-08T03:44:43;99858.03;;;16.45;62.81
28306;BME280;7516;43.570;1.448;2023-08-08T03:47:11;99861.91;;;16.42;63.07
28306;BME280;7516;43.570;1.448;2023-08-08T03:49:39;99858.03;;;16.38;63.14
28306;BME280;7516;43.570;1.448;2023-08-08T03:52:07;99862.13;;;16.34;63.38
28306;BME280;7516;43.570;1.448;2023-08-08T03:54:34;99871.09;;;16.33;63.81
28306;BME280;7516;43.570;1.448;2023-08-08T03:57:02;99871.50;;;16.30;63.90
28306;BME280;7516;43.570;1.448;2023-08-08T03:59:31;99875.34;;;16.28;64.02
28306;BME280;7516;43.570;1.448;2023-08-08T04:01:58;99870.50;;;16.25;64.66
28306;BME280;7516;43.570;1.448;2023-08-08T04:04:26;99864.78;;;16.21;64.47
28306;BME280;7516;43.570;1.448;2023-08-08T04:06:53;99869.44;;;16.19;65.22
28306;BME280;7516;43.570;1.448;2023-08-08T04:09:20;99870.91;;;16.15;64.92
28306;BME280;7516;43.570;1.448;2023-08-08T04:11:48;99869.66;;;16.11;65.55
28306;BME280;7516;43.570;1.448;2023-08-08T04:14:15;99869.06;;;16.09;65.53
28306;BME280;7516;43.570;1.448;2023-08-08T04:16:44;99871.09;;;16.07;65.54
28306;BME280;7516;43.570;1.448;2023-08-08T04:19:12;99875.78;;;16.05;66.04
28306;BME280;7516;43.570;1.448;2023-08-08T04:21:39;99862.38;;;16.00;66.23
28306;BME280;7516;43.570;1.448;2023-08-08T04:24:07;99867.22;;;15.96;66.32
28306;BME280;7516;43.570;1.448;2023-08-08T04:26:35;99864.41;;;15.91;66.75
28306;BME280;7516;43.570;1.448;2023-08-08T04:29:02;99871.09;;;15.87;66.59
28306;BME280;7516;43.570;1.448;2023-08-08T04:31:29;99864.38;;;15.85;66.80
28306;BME280;7516;43.570;1.448;2023-08-08T04:33:59;99869.25;;;15.81;67.23
28306;BME280;7516;43.570;1.448;2023-08-08T04:36:27;99870.47;;;15.78;67.40
28306;BME280;7516;43.570;1.448;2023-08-08T04:38:55;99882.25;;;15.76;67.77
28306;BME280;7516;43.570;1.448;2023-08-08T04:41:22;99882.44;;;15.74;67.83
28306;BME280;7516;43.570;1.448;2023-08-08T04:43:50;99882.88;;;15.71;67.82
28306;BME280;7516;43.570;1.448;2023-08-08T04:46:17;99886.53;;;15.70;68.46
28306;BME280;7516;43.570;1.448;2023-08-08T04:48:45;99898.09;;;15.69;68.12
28306;BME280;7516;43.570;1.448;2023-08-08T04:51:14;99894.84;;;15.67;68.08
28306;BME280;7516;43.570;1.448;2023-08-08T04:53:41;99902.19;;;15.65;68.22
28306;BME280;7516;43.570;1.448;2023-08-08T04:56:09;99905.81;;;15.64;68.43
28306;BME280;7516;43.570;1.448;2023-08-08T04:58:36;99905.81;;;15.64;68.36
28306;BME280;7516;43.570;1.448;2023-08-08T05:01:03;99903.38;;;15.63;68.45
28306;BME280;7516;43.570;1.448;2023-08-08T05:03:31;99897.28;;;15.62;68.49
28306;BME280;7516;43.570;1.448;2023-08-08T05:05:58;99890.38;;;15.61;68.97
28306;BME280;7516;43.570;1.448;2023-08-08T05:08:27;99894.84;;;15.61;68.92
28306;BME280;7516;43.570;1.448;2023-08-08T05:10:55;99897.66;;;15.59;69.30
28306;BME280;7516;43.570;1.448;2023-08-08T05:13:22;99906.59;;;15.58;69.31
28306;BME280;7516;43.570;1.448;2023-08-08T05:15:50;99894.22;;;15.59;69.32
28306;BME280;7516;43.570;1.448;2023-08-08T05:18:17;99893.41;;;15.58;69.58
28306;BME280;7516;43.570;1.448;2023-08-08T05:20:45;99895.03;;;15.59;69.58
28306;BME280;7516;43.570;1.448;2023-08-08T05:23:12;99892.56;;;15.58;69.81
28306;BME280;7516;43.570;1.448;2023-08-08T05:25:42;99887.53;;;15.56;69.66
28306;BME280;7516;43.570;1.448;2023-08-08T05:28:09;99897.06;;;15.57;69.71
28306;BME280;7516;43.570;1.448;2023-08-08T05:30:37;99895.22;;;15.58;69.80
28306;BME280;7516;43.570;1.448;2023-08-08T05:33:04;99896.03;;;15.58;69.66
28306;BME280;7516;43.570;1.448;2023-08-08T05:35:32;99899.94;;;15.62;70.04
28306;BME280;7516;43.570;1.448;2023-08-08T05:37:59;99887.53;;;15.63;70.12
28306;BME280;7516;43.570;1.448;2023-08-08T05:40:27;99884.69;;;15.64;70.15
28306;BME280;7516;43.570;1.448;2023-08-08T05:42:55;99893.22;;;15.66;70.12
28306;BME280;7516;43.570;1.448;2023-08-08T05:45:23;99898.09;;;15.69;70.47
28306;BME280;7516;43.570;1.448;2023-08-08T05:47:50;99887.16;;;15.72;70.54
28306;BME280;7516;43.570;1.448;2023-08-08T05:50:18;99894.66;;;15.75;70.51
28306;BME280;7516;43.570;1.448;2023-08-08T05:52:46;99899.53;;;15.78;70.28
28306;BME280;7516;43.570;1.448;2023-08-08T05:55:13;99898.13;;;15.83;70.56
28306;BME280;7516;43.570;1.448;2023-08-08T05:57:41;99894.44;;;15.84;70.29
28306;BME280;7516;43.570;1.448;2023-08-08T06:00:11;99897.53;;;15.87;70.21
28306;BME280;7516;43.570;1.448;2023-08-08T06:02:39;99893.66;;;15.90;70.33
28306;BME280;7516;43.570;1.448;2023-08-08T06:05:07;99892.44;;;15.92;70.31
28306;BME280;7516;43.570;1.448;2023-08-08T06:07:35;99887.56;;;15.96;70.28
28306;BME280;7516;43.570;1.448;2023-08-08T06:10:03;99891.66;;;15.98;70.32
28306;BME280;7516;43.570;1.448;2023-08-08T06:12:30;99888.81;;;16.00;70.41
28306;BME280;7516;43.570;1.448;2023-08-08T06:14:58;99887.75;;;16.01;70.65
28306;BME280;7516;43.570;1.448;2023-08-08T06:17:27;99893.28;;;16.06;70.84
28306;BME280;7516;43.570;1.448;2023-08-08T06:19:54;99893.69;;;16.09;70.49
28306;BME280;7516;43.570;1.448;2023-08-08T06:22:23;99900.19;;;16.13;70.80
28306;BME280;7516;43.570;1.448;2023-08-08T06:24:51;99899.34;;;16.19;70.75
28306;BME280;7516;43.570;1.448;2023-08-08T06:27:18;99898.16;;;16.22;70.62
28306;BME280;7516;43.570;1.448;2023-08-08T06:29:46;99899.38;;;16.26;70.83
28306;BME280;7516;43.570;1.448;2023-08-08T06:32:13;99903.84;;;16.32;70.58
28306;BME280;7516;43.570;1.448;2023-08-08T06:34:42;99902.63;;;16.35;70.21
28306;BME280;7516;43.570;1.448;2023-08-08T06:37:10;99907.28;;;16.39;70.55
28306;BME280;7516;43.570;1.448;2023-08-08T06:39:37;99924.41;;;16.43;70.58
28306;BME280;7516;43.570;1.448;2023-08-08T06:42:06;99927.44;;;16.47;70.16
28306;BME280;7516;43.570;1.448;2023-08-08T06:44:40;99931.50;;;16.49;70.00
28306;BME280;7516;43.570;1.448;2023-08-08T06:47:07;99936.41;;;16.52;70.21
28306;BME280;7516;43.570;1.448;2023-08-08T06:49:35;99943.72;;;16.57;70.34
28306;BME280;7516;43.570;1.448;2023-08-08T06:52:04;99948.44;;;16.62;69.78
28306;BME280;7516;43.570;1.448;2023-08-08T06:54:32;99951.47;;;16.65;69.89
28306;BME280;7516;43.570;1.448;2023-08-08T06:57:00;99952.28;;;16.66;69.42
28306;BME280;7516;43.570;1.448;2023-08-08T06:59:28;99944.56;;;16.71;69.50
28306;BME280;7516;43.570;1.448;2023-08-08T07:01:56;99948.19;;;16.76;69.44
28306;BME280;7516;43.570;1.448;2023-08-08T07:04:23;99943.28;;;16.80;69.82
28306;BME280;7516;43.570;1.448;2023-08-08T07:06:51;99947.78;;;16.86;69.19
28306;BME280;7516;43.570;1.448;2023-08-08T07:09:20;99953.25;;;16.91;69.25
28306;BME280;7516;43.570;1.448;2023-08-08T07:11:48;99947.72;;;16.99;69.24
28306;BME280;7516;43.570;1.448;2023-08-08T07:14:15;99947.13;;;17.04;69.19
28306;BME280;7516;43.570;1.448;2023-08-08T07:16:43;99937.97;;;17.06;68.89
28306;BME280;7516;43.570;1.448;2023-08-08T07:19:10;99947.09;;;17.10;69.11
28306;BME280;7516;43.570;1.448;2023-08-08T07:21:38;99948.31;;;17.14;69.09
28306;BME280;7516;43.570;1.448;2023-08-08T07:24:07;99945.84;;;17.19;68.61
28306;BME280;7516;43.570;1.448;2023-08-08T07:26:37;99952.38;;;17.23;68.76
28306;BME280;7516;43.570;1.448;2023-08-08T07:29:05;99962.72;;;17.32;68.61
28306;BME280;7516;43.570;1.448;2023-08-08T07:31:32;99955.38;;;17.34;68.48
28306;BME280;7516;43.570;1.448;2023-08-08T07:34:00;99944.97;;;17.39;68.37
28306;BME280;7516;43.570;1.448;2023-08-08T07:36:28;99949.41;;;17.45;68.28
28306;BME280;7516;43.570;1.448;2023-08-08T07:38:55;99950.41;;;17.50;68.21
28306;BME280;7516;43.570;1.448;2023-08-08T07:41:25;99951.63;;;17.54;67.89
28306;BME280;7516;43.570;1.448;2023-08-08T07:43:54;99943.63;;;17.61;67.73
28306;BME280;7516;43.570;1.448;2023-08-08T07:46:22;99951.81;;;17.66;67.16
28306;BME280;7516;43.570;1.448;2023-08-08T07:48:50;99948.91;;;17.74;67.39
28306;BME280;7516;43.570;1.448;2023-08-08T07:51:17;99952.53;;;17.80;67.23
28306;BME280;7516;43.570;1.448;2023-08-08T07:53:44;99948.81;;;17.87;66.98
28306;BME280;7516;43.570;1.448;2023-08-08T07:56:12;99942.22;;;17.96;66.59
28306;BME280;7516;43.570;1.448;2023-08-08T07:58:39;99943.22;;;18.02;66.24
28306;BME280;7516;43.570;1.448;2023-08-08T08:01:08;99942.34;;;18.08;66.33
28306;BME280;7516;43.570;1.448;2023-08-08T08:03:37;99939.66;;;18.15;65.84
28306;BME280;7516;43.570;1.448;2023-08-08T08:06:05;99953.91;;;18.20;65.64
28306;BME280;7516;43.570;1.448;2023-08-08T08:08:32;99950.38;;;18.26;65.38
28306;BME280;7516;43.570;1.448;2023-08-08T08:11:01;99947.06;;;18.31;65.35
28306;BME280;7516;43.570;1.448;2023-08-08T08:13:29;99937.22;;;18.38;65.15
28306;BME280;7516;43.570;1.448;2023-08-08T08:15:57;99942.69;;;18.43;64.91
28306;BME280;7516;43.570;1.448;2023-08-08T08:18:25;99933.63;;;18.51;65.00
28306;BME280;7516;43.570;1.448;2023-08-08T08:20:55;99928.09;;;18.59;64.64
28306;BME280;7516;43.570;1.448;2023-08-08T08:23:22;99931.47;;;18.66;64.39
28306;BME280;7516;43.570;1.448;2023-08-08T08:25:50;99923.00;;;18.75;64.23
28306;BME280;7516;43.570;1.448;2023-08-08T08:28:18;99932.78;;;18.82;64.04
28306;BME280;7516;43.570;1.448;2023-08-08T08:30:45;99934.75;;;18.86;63.55
28306;BME280;7516;43.570;1.448;2023-08-08T08:33:13;99931.00;;;18.94;63.45
28306;BME280;7516;43.570;1.448;2023-08-08T08:35:42;99928.25;;;19.00;62.98
28306;BME280;7516;43.570;1.448;2023-08-08T08:38:09;99931.88;;;19.06;62.88
28306;BME280;7516;43.570;1.448;2023-08-08T08:40:39;99927.53;;;19.11;62.68
28306;BME280;7516;43.570;1.448;2023-08-08T08:43:08;99934.38;;;19.19;62.30
28306;BME280;7516;43.570;1.448;2023-08-08T08:45:38;99935.69;;;19.28;62.01
28306;BME280;7516;43.570;1.448;2023-08-08T08:48:09;99936.91;;;19.32;61.54
28306;BME280;7516;43.570;1.448;2023-08-08T08:50:40;99938.06;;;19.36;61.44
28306;BME280;7516;43.570;1.448;2023-08-08T08:53:10;99944.69;;;19.45;61.05
28306;BME280;7516;43.570;1.448;2023-08-08T08:55:39;99945.00;;;19.56;60.88
28306;BME280;7516;43.570;1.448;2023-08-08T08:58:07;99946.53;;;19.63;60.27
28306;BME280;7516;43.570;1.448;2023-08-08T09:00:35;99937.91;;;19.68;59.82
28306;BME280;7516;43.570;1.448;2023-08-08T09:03:04;99942.53;;;19.72;59.30
28306;BME280;7516;43.570;1.448;2023-08-08T09:05:32;99941.38;;;19.80;58.82
28306;BME280;7516;43.570;1.448;2023-08-08T09:08:03;99949.53;;;19.85;58.50
28306;BME280;7516;43.570;1.448;2023-08-08T09:10:31;99953.13;;;19.90;58.08
28306;BME280;7516;43.570;1.448;2023-08-08T09:12:59;99948.50;;;19.98;57.78
28306;BME280;7516;43.570;1.448;2023-08-08T09:15:30;99953.06;;;20.09;57.41
28306;BME280;7516;43.570;1.448;2023-08-08T09:17:58;99947.06;;;20.13;56.59
28306;BME280;7516;43.570;1.448;2023-08-08T09:20:26;99946.34;;;20.18;56.27
28306;BME280;7516;43.570;1.448;2023-08-08T09:22:55;99949.03;;;20.18;56.05
28306;BME280;7516;43.570;1.448;2023-08-08T09:25:24;99954.16;;;20.31;55.90
28306;BME280;7516;43.570;1.448;2023-08-08T09:27:52;99957.53;;;20.38;55.43
28306;BME280;7516;43.570;1.448;2023-08-08T09:30:20;99941.81;;;20.48;55.02
28306;BME280;7516;43.570;1.448;2023-08-08T09:32:48;99943.53;;;20.54;54.58
28306;BME280;7516;43.570;1.448;2023-08-08T09:35:15;99939.94;;;20.60;53.98
28306;BME280;7516;43.570;1.448;2023-08-08T09:37:45;99933.81;;;20.60;53.75
28306;BME280;7516;43.570;1.448;2023-08-08T09:40:12;99936.69;;;20.58;53.42
28306;BME280;7516;43.570;1.448;2023-08-08T09:42:42;99934.38;;;20.62;53.61
28306;BME280;7516;43.570;1.448;2023-08-08T09:45:10;99951.06;;;20.69;53.30
28306;BME280;7516;43.570;1.448;2023-08-08T09:47:38;99939.81;;;20.79;52.74
28306;BME280;7516;43.570;1.448;2023-08-08T09:50:07;99938.56;;;20.81;52.70
28306;BME280;7516;43.570;1.448;2023-08-08T09:52:36;99944.56;;;20.88;52.25
28306;BME280;7516;43.570;1.448;2023-08-08T09:55:05;99946.06;;;20.96;51.89
28306;BME280;7516;43.570;1.448;2023-08-08T09:57:34;99938.66;;;20.98;51.27
28306;BME280;7516;43.570;1.448;2023-08-08T10:00:04;99933.91;;;21.00;51.08
28306;BME280;7516;43.570;1.448;2023-08-08T10:02:36;99929.94;;;21.02;51.05
28306;BME280;7516;43.570;1.448;2023-08-08T10:05:04;99939.56;;;21.03;50.90
28306;BME280;7516;43.570;1.448;2023-08-08T10:07:32;99932.00;;;21.12;50.30
28306;BME280;7516;43.570;1.448;2023-08-08T10:10:00;99933.16;;;21.16;50.33
28306;BME280;7516;43.570;1.448;2023-08-08T10:12:27;99934.44;;;21.25;49.90
28306;BME280;7516;43.570;1.448;2023-08-08T10:14:55;99941.63;;;21.36;49.25
28306;BME280;7516;43.570;1.448;2023-08-08T10:17:24;99943.09;;;21.44;49.27
28306;BME280;7516;43.570;1.448;2023-08-08T10:19:53;99944.22;;;21.48;48.60
28306;BME280;7516;43.570;1.448;2023-08-08T10:22:22;99944.56;;;21.52;48.49
28306;BME280;7516;43.570;1.448;2023-08-08T10:24:52;99943.84;;;21.56;48.25
28306;BME280;7516;43.570;1.448;2023-08-08T10:27:31;99940.31;;;21.67;47.92
28306;BME280;7516;43.570;1.448;2023-08-08T10:30:02;99932.97;;;21.74;47.52
28306;BME280;7516;43.570;1.448;2023-08-08T10:32:38;99937.13;;;21.82;46.83
28306;BME280;7516;43.570;1.448;2023-08-08T10:35:07;99932.34;;;21.84;46.42
28306;BME280;7516;43.570;1.448;2023-08-08T10:37:36;99923.31;;;21.85;46.35
28306;BME280;7516;43.570;1.448;2023-08-08T10:40:04;99919.25;;;21.83;45.81
28306;BME280;7516;43.570;1.448;2023-08-08T10:42:40;99912.78;;;21.78;45.91
28306;BME280;7516;43.570;1.448;2023-08-08T10:45:11;99916.56;;;21.83;45.90
28306;BME280;7516;43.570;1.448;2023-08-08T10:47:42;99912.81;;;21.95;45.52
28306;BME280;7516;43.570;1.448;2023-08-08T10:50:12;99916.38;;;22.01;44.97
28306;BME280;7516;43.570;1.448;2023-08-08T10:52:52;99911.56;;;22.14;44.55
28306;BME280;7516;43.570;1.448;2023-08-08T10:55:21;99916.66;;;22.16;43.85
28306;BME280;7516;43.570;1.448;2023-08-08T10:58:02;99910.41;;;22.10;44.03
28306;BME280;7516;43.570;1.448;2023-08-08T11:00:32;99901.75;;;22.20;43.74
28306;BME280;7516;43.570;1.448;2023-08-08T11:03:02;99907.34;;;22.19;43.36
28306;BME280;7516;43.570;1.448;2023-08-08T11:05:32;99893.28;;;22.23;43.33
28306;BME280;7516;43.570;1.448;2023-08-08T11:08:00;99889.56;;;22.24;43.10
28306;BME280;7516;43.570;1.448;2023-08-08T11:10:28;99895.59;;;22.36;42.80
28306;BME280;7516;43.570;1.448;2023-08-08T11:12:58;99886.19;;;22.50;42.41
28306;BME280;7516;43.570;1.448;2023-08-08T11:15:27;99885.69;;;22.53;42.07
28306;BME280;7516;43.570;1.448;2023-08-08T11:17:56;99887.88;;;22.57;41.54
28306;BME280;7516;43.570;1.448;2023-08-08T11:20:29;99878.81;;;22.58;41.50
28306;BME280;7516;43.570;1.448;2023-08-08T11:22:57;99882.53;;;22.57;41.52
28306;BME280;7516;43.570;1.448;2023-08-08T11:25:26;99870.56;;;22.59;41.19
28306;BME280;7516;43.570;1.448;2023-08-08T11:27:54;99882.06;;;22.60;40.98
28306;BME280;7516;43.570;1.448;2023-08-08T11:30:23;99879.38;;;22.76;40.98
28306;BME280;7516;43.570;1.448;2023-08-08T11:32:51;99871.16;;;22.83;40.60
28306;BME280;7516;43.570;1.448;2023-08-08T11:35:20;99867.44;;;22.84;40.35
28306;BME280;7516;43.570;1.448;2023-08-08T11:37:51;99869.06;;;22.85;40.10
28306;BME280;7516;43.570;1.448;2023-08-08T11:40:20;99863.03;;;22.95;39.84
28306;BME280;7516;43.570;1.448;2023-08-08T11:42:48;99865.56;;;23.06;39.80
28306;BME280;7516;43.570;1.448;2023-08-08T11:45:18;99854.59;;;23.08;39.30
28306;BME280;7516;43.570;1.448;2023-08-08T11:47:49;99855.19;;;23.10;39.17
28306;BME280;7516;43.570;1.448;2023-08-08T11:50:18;99852.06;;;23.18;39.07
28306;BME280;7516;43.570;1.448;2023-08-08T11:52:47;99853.16;;;23.22;39.09
28306;BME280;7516;43.570;1.448;2023-08-08T11:55:15;99844.38;;;23.26;38.67
28306;BME280;7516;43.570;1.448;2023-08-08T11:57:47;99843.09;;;23.29;38.76
28306;BME280;7516;43.570;1.448;2023-08-08T12:00:15;99842.06;;;23.35;38.72
28306;BME280;7516;43.570;1.448;2023-08-08T12:02:44;99834.63;;;23.42;38.47
28306;BME280;7516;43.570;1.448;2023-08-08T12:05:13;99837.13;;;23.49;38.25
28306;BME280;7516;43.570;1.448;2023-08-08T12:07:43;99832.91;;;23.53;38.16
28306;BME280;7516;43.570;1.448;2023-08-08T12:10:18;99833.50;;;23.60;37.89
28306;BME280;7516;43.570;1.448;2023-08-08T12:12:46;99830.06;;;23.65;37.65
28306;BME280;7516;43.570;1.448;2023-08-08T12:15:14;99825.53;;;23.65;37.36
28306;BME280;7516;43.570;1.448;2023-08-08T12:17:43;99835.97;;;23.67;37.33
28306;BME280;7516;43.570;1.448;2023-08-08T12:20:11;99831.47;;;23.72;37.08
28306;BME280;7516;43.570;1.448;2023-08-08T12:22:39;99832.31;;;23.78;37.08
28306;BME280;7516;43.570;1.448;2023-08-08T12:25:06;99828.31;;;23.80;36.89
28306;BME280;7516;43.570;1.448;2023-08-08T12:27:35;99821.19;;;23.91;36.66
28306;BME280;7516;43.570;1.448;2023-08-08T12:30:06;99815.34;;;23.99;36.68
28306;BME280;7516;43.570;1.448;2023-08-08T12:32:33;99823.38;;;23.99;36.42
28306;BME280;7516;43.570;1.448;2023-08-08T12:35:01;99826.94;;;24.10;36.49
28306;BME280;7516;43.570;1.448;2023-08-08T12:37:28;99816.81;;;24.17;36.06
28306;BME280;7516;43.570;1.448;2023-08-08T12:39:56;99804.22;;;24.17;35.90
28306;BME280;7516;43.570;1.448;2023-08-08T12:42:24;99805.56;;;24.20;35.82
28306;BME280;7516;43.570;1.448;2023-08-08T12:44:54;99800.84;;;24.32;35.44
28306;BME280;7516;43.570;1.448;2023-08-08T12:47:21;99800.06;;;24.36;35.31
28306;BME280;7516;43.570;1.448;2023-08-08T12:49:49;99808.94;;;24.42;35.27
28306;BME280;7516;43.570;1.448;2023-08-08T12:52:16;99800.41;;;24.50;34.99
28306;BME280;7516;43.570;1.448;2023-08-08T12:54:44;99803.63;;;24.52;34.94
28306;BME280;7516;43.570;1.448;2023-08-08T12:57:11;99790.53;;;24.61;34.51
28306;BME280;7516;43.570;1.448;2023-08-08T12:59:39;99799.41;;;24.66;34.58
28306;BME280;7516;43.570;1.448;2023-08-08T13:02:08;99805.31;;;24.73;34.33
28306;BME280;7516;43.570;1.448;2023-08-08T13:04:35;99804.56;;;24.83;33.97
28306;BME280;7516;43.570;1.448;2023-08-08T13:07:03;99798.66;;;24.86;33.70
28306;BME280;7516;43.570;1.448;2023-08-08T13:09:31;99796.25;;;24.90;33.72
28306;BME280;7516;43.570;1.448;2023-08-08T13:11:58;99790.94;;;25.00;33.54
28306;BME280;7516;43.570;1.448;2023-08-08T13:14:26;99780.75;;;25.02;33.53
28306;BME280;7516;43.570;1.448;2023-08-08T13:16:53;99783.22;;;25.14;33.54